Green Isle, Minnesota
Current Conditions -  °F | °C
As of 8:54 AM on Thursday 30 Oct 2014 (Local Time) from KGYL Reporting Station
Broken Clouds Broken Clouds  
Wind Chill: 40°   Ceiling: 5500
Heat Index: 40°   Visibility: 10mi
Dew Point: 38°   Wind: 0mph
Humidity: 90%   Direction: NA
Pressure: 30.04"   Gusts: NA
Location:  44.68°N, 94.01°W
Report Text: KGYL 301354Z AUTO 00000KT 10SM BKN055 05/03 A3004 RMK AO2 T00460031
Loading
Personal Weather Stations






























Interactive Weather Map
Tropical Storm Tracking
New forecast layout! Learn more

10-Day Weather Forecast

Advertisements
Track Severe Weather on mobile